createdAt,value
2022-11-28T00:00:52.575Z,9.48
2022-11-28T00:07:34.939Z,7.35
2022-11-28T00:14:19.108Z,7.63
2022-11-28T00:21:09.703Z,9.90
2022-11-28T00:27:52.096Z,8.52
2022-11-28T00:34:34.781Z,8.63
2022-11-28T00:41:23.814Z,8.73
2022-11-28T00:48:06.310Z,8.63
2022-11-28T00:54:48.617Z,8.18
2022-11-28T01:01:37.167Z,8.38
2022-11-28T01:08:19.578Z,7.45
2022-11-28T01:15:01.965Z,10.07
2022-11-28T01:21:44.683Z,9.10
2022-11-28T01:28:27.038Z,9.65
2022-11-28T01:35:09.812Z,8.15
2022-11-28T01:41:52.633Z,9.40
2022-11-28T01:48:41.885Z,11.32
2022-11-28T01:55:27.289Z,9.95
2022-11-28T02:02:19.847Z,8.43
2022-11-28T02:09:02.306Z,9.90
2022-11-28T02:15:44.573Z,7.57
2022-11-28T02:22:44.607Z,10.75
2022-11-28T02:29:45.777Z,8.40
2022-11-28T02:36:49.978Z,7.45
2022-11-28T02:43:52.329Z,8.77
2022-11-28T02:50:44.928Z,9.07
2022-11-28T02:57:38.514Z,8.57
2022-11-28T03:04:52.274Z,7.88
2022-11-28T03:12:03.896Z,9.10
2022-11-28T03:19:04.731Z,8.70
2022-11-28T03:26:12.639Z,9.70
2022-11-28T03:32:57.906Z,10.50
2022-11-28T03:39:48.607Z,8.73
2022-11-28T03:46:36.484Z,12.95
2022-11-28T03:53:24.274Z,9.80
2022-11-28T04:00:09.025Z,9.82
2022-11-28T04:07:16.511Z,9.27
2022-11-28T04:14:10.443Z,9.25
2022-11-28T04:21:22.500Z,10.93
2022-11-28T04:28:14.113Z,11.20
2022-11-28T04:35:06.547Z,9.23
2022-11-28T04:41:53.589Z,8.73
2022-11-28T04:48:36.030Z,10.02
2022-11-28T04:55:38.507Z,9.15
2022-11-28T05:02:22.964Z,10.50
2022-11-28T05:09:05.904Z,7.68
2022-11-28T05:15:48.484Z,9.30
2022-11-28T05:22:30.851Z,9.25
2022-11-28T05:29:13.288Z,10.70
2022-11-28T05:35:56.298Z,9.60
2022-11-28T05:42:38.668Z,10.88
2022-11-28T05:49:21.666Z,8.30
2022-11-28T05:56:16.444Z,9.75
2022-11-28T06:03:01.452Z,10.55
2022-11-28T06:09:44.584Z,7.68
2022-11-28T06:16:28.880Z,10.40
2022-11-28T06:23:11.291Z,10.63
2022-11-28T06:29:53.678Z,11.88
2022-11-28T06:36:36.050Z,10.75
2022-11-28T06:43:18.386Z,10.85
2022-11-28T06:50:00.788Z,12.90
2022-11-28T06:56:43.354Z,9.70
2022-11-28T07:03:25.715Z,8.02
2022-11-28T07:10:08.514Z,12.73
2022-11-28T07:16:51.049Z,10.48
2022-11-28T07:23:33.481Z,13.23
2022-11-28T07:30:15.911Z,9.98
2022-11-28T07:36:58.605Z,11.80
2022-11-28T07:43:43.376Z,15.15
2022-11-28T07:50:25.759Z,9.30
2022-11-28T07:57:12.467Z,12.52
2022-11-28T08:03:56.312Z,9.23
2022-11-28T08:10:38.685Z,12.48
2022-11-28T08:17:21.132Z,13.73
2022-11-28T08:24:04.901Z,11.73
2022-11-28T08:30:47.258Z,16.88
2022-11-28T08:37:29.644Z,12.07
2022-11-28T08:44:12.747Z,10.25
2022-11-28T08:50:55.184Z,8.93
2022-11-28T08:57:37.587Z,12.60
2022-11-28T09:04:21.374Z,11.98
2022-11-28T09:11:06.858Z,13.77
2022-11-28T09:17:49.197Z,14.27
2022-11-28T09:24:31.786Z,15.07
2022-11-28T09:31:15.279Z,9.88
2022-11-28T09:37:57.794Z,11.55
2022-11-28T09:45:03.527Z,9.43
2022-11-28T09:52:02.628Z,15.32
2022-11-28T09:58:57.839Z,15.10
2022-11-28T10:05:48.488Z,10.65
2022-11-28T10:12:57.503Z,10.32
2022-11-28T10:20:02.801Z,9.55
2022-11-28T10:26:51.824Z,17.95
2022-11-28T10:33:47.263Z,15.80
2022-11-28T10:40:50.188Z,10.95
2022-11-28T10:48:07.398Z,12.80
2022-11-28T10:55:22.664Z,10.93
2022-11-28T11:02:40.923Z,13.20
2022-11-28T11:09:23.280Z,11.75
2022-11-28T11:16:11.421Z,11.02
2022-11-28T11:23:22.034Z,13.90
2022-11-28T11:30:27.482Z,10.13
2022-11-28T11:37:31.943Z,12.30
2022-11-28T11:44:14.264Z,10.45
2022-11-28T11:50:56.792Z,11.27
2022-11-28T11:57:48.387Z,11.38
2022-11-28T12:04:55.315Z,10.35
2022-11-28T12:11:47.209Z,13.27
2022-11-28T12:18:45.342Z,12.73
2022-11-28T12:25:37.400Z,10.90
2022-11-28T12:32:41.241Z,12.82
2022-11-28T12:39:51.099Z,15.15
2022-11-28T12:46:52.656Z,11.65
2022-11-28T12:53:55.375Z,8.73
2022-11-28T13:00:50.036Z,11.70
2022-11-28T13:08:00.875Z,13.60
2022-11-28T13:14:54.690Z,10.23
2022-11-28T13:21:54.932Z,11.98
2022-11-28T13:28:40.889Z,14.13
2022-11-28T13:35:24.078Z,13.25
2022-11-28T13:43:03.959Z,9.60
2022-11-28T13:49:49.736Z,10.65
2022-11-28T13:56:32.092Z,12.77
2022-11-28T14:03:20.416Z,13.80
2022-11-28T14:10:24.280Z,14.05
2022-11-28T14:17:23.990Z,16.63
2022-11-28T14:24:15.868Z,19.13
2022-11-28T14:31:21.418Z,11.30
2022-11-28T14:38:23.769Z,10.98
2022-11-28T14:45:39.913Z,23.58
2022-11-28T14:52:41.611Z,14.63
2022-11-28T14:59:30.886Z,17.90
2022-11-28T15:06:26.651Z,14.65
2022-11-28T15:13:28.553Z,15.93
2022-11-28T15:20:33.445Z,14.45
2022-11-28T15:27:24.326Z,13.40
2022-11-28T15:34:09.918Z,18.52
2022-11-28T15:40:54.658Z,15.65
2022-11-28T15:47:38.365Z,19.85
2022-11-28T15:54:41.156Z,14.25
2022-11-28T16:01:25.898Z,16.58
2022-11-28T16:08:37.116Z,19.45
2022-11-28T16:15:22.292Z,18.65
2022-11-28T16:22:16.221Z,19.42
2022-11-28T16:29:03.536Z,19.80
2022-11-28T16:35:45.932Z,20.33
2022-11-28T16:42:33.797Z,16.65
2022-11-28T16:49:39.362Z,18.95
2022-11-28T16:56:25.673Z,17.25
2022-11-28T17:03:20.264Z,20.50
2022-11-28T17:10:02.720Z,21.02
2022-11-28T17:16:45.319Z,39.40
2022-11-28T17:23:30.854Z,18.58
2022-11-28T17:30:14.777Z,19.58
2022-11-28T17:36:58.389Z,17.40
2022-11-28T17:43:41.355Z,20.35
2022-11-28T17:50:24.139Z,23.63
2022-11-28T17:57:09.184Z,27.38
2022-11-28T18:03:52.873Z,28.83
2022-11-28T18:10:36.247Z,20.88
2022-11-28T18:17:18.776Z,23.23
2022-11-28T18:24:01.582Z,26.65
2022-11-28T18:30:46.373Z,23.52
2022-11-28T18:37:28.831Z,23.85
2022-11-28T18:44:16.930Z,22.27
2022-11-28T18:50:59.373Z,27.27
2022-11-28T18:57:42.071Z,21.30
2022-11-28T19:04:24.632Z,21.85
2022-11-28T19:11:09.757Z,20.92
2022-11-28T19:17:52.123Z,33.90
2022-11-28T19:24:34.914Z,27.02
2022-11-28T19:31:27.127Z,24.67
2022-11-28T19:38:09.917Z,21.38
2022-11-28T19:44:52.746Z,22.38
2022-11-28T19:51:35.643Z,19.23
2022-11-28T19:58:18.356Z,23.60
2022-11-28T20:05:00.737Z,23.17
2022-11-28T20:11:43.963Z,26.85
2022-11-28T20:18:26.866Z,30.83
2022-11-28T20:25:09.514Z,28.80
2022-11-28T20:31:52.002Z,27.88
2022-11-28T20:38:34.699Z,24.08
2022-11-28T20:45:17.136Z,22.45
2022-11-28T20:51:59.501Z,20.85
2022-11-28T20:58:46.969Z,24.60
2022-11-28T21:05:30.301Z,24.92
2022-11-28T21:12:14.497Z,28.17
2022-11-28T21:19:07.424Z,24.30
2022-11-28T21:25:49.857Z,26.77
2022-11-28T21:32:34.420Z,21.80
2022-11-28T21:39:19.721Z,22.67
2022-11-28T21:46:03.753Z,23.25
2022-11-28T21:52:46.154Z,26.63
2022-11-28T21:59:28.587Z,25.13
2022-11-28T22:06:20.620Z,23.65
2022-11-28T22:13:04.287Z,24.83
2022-11-28T22:19:46.683Z,27.10
2022-11-28T22:26:29.086Z,24.15
2022-11-28T22:33:12.441Z,29.35
2022-11-28T22:39:54.792Z,25.45
2022-11-28T22:46:38.642Z,27.10
2022-11-28T22:53:21.169Z,26.85
2022-11-28T23:00:08.849Z,28.35
2022-11-28T23:06:51.242Z,28.75
2022-11-28T23:13:36.213Z,25.05
2022-11-28T23:20:18.795Z,23.90
2022-11-28T23:27:01.145Z,24.17
2022-11-28T23:33:44.650Z,24.35
2022-11-28T23:40:28.544Z,25.05
2022-11-28T23:47:10.905Z,27.27
2022-11-28T23:53:54.216Z,25.60
